Time;durP1;ratioP1;P1;durP2;ratioP2;P2;SDS_P1;SDS_P2;PMS_P1;PMS_P2;Temp;Humidity;BMP_temperature;BMP_pressure;BME280_temperature;BME280_humidity;BME280_pressure;Samples;Min_cycle;Max_cycle;Signal;HPM_P1;HPM_P2
2023/06/25 00:01:48;;;;;;;5.90;4.85;;;;;;;19.14;45.68;96057.84;4995554;28;20230;-82
2023/06/25 00:04:14;;;;;;;4.82;4.32;;;;;;;19.09;46.14;96055.00;4994424;28;20210;-82
2023/06/25 00:06:39;;;;;;;4.65;4.25;;;;;;;19.04;46.11;96052.09;4995055;28;20271;-82
2023/06/25 00:09:04;;;;;;;5.10;4.32;;;;;;;19.04;46.31;96055.53;4989201;28;20274;-82
2023/06/25 00:11:29;;;;;;;5.03;4.55;;;;;;;18.99;46.48;96054.47;4989873;28;20616;-82
2023/06/25 00:13:55;;;;;;;4.95;4.40;;;;;;;18.96;46.71;96060.94;4993891;28;20984;-82
2023/06/25 00:16:20;;;;;;;4.47;4.07;;;;;;;18.91;46.79;96053.59;4994803;28;20299;-83
2023/06/25 00:18:47;;;;;;;5.10;4.60;;;;;;;18.87;47.14;96057.59;4995313;28;20211;-82
2023/06/25 00:21:12;;;;;;;5.28;4.78;;;;;;;18.84;47.54;96049.28;4979940;28;20658;-83
2023/06/25 00:23:38;;;;;;;5.15;4.43;;;;;;;18.79;47.43;96055.06;4992837;28;20215;-82
2023/06/25 00:26:03;;;;;;;5.80;4.57;;;;;;;18.76;47.18;96052.00;4986408;28;20183;-82
2023/06/25 00:28:28;;;;;;;5.03;4.53;;;;;;;18.72;47.65;96048.91;4993584;28;20581;-82
2023/06/25 00:30:54;;;;;;;5.50;4.25;;;;;;;18.71;47.58;96049.94;4996104;28;20270;-82
2023/06/25 00:33:19;;;;;;;4.63;3.97;;;;;;;18.68;48.17;96048.50;5004513;28;20176;-83
2023/06/25 00:36:05;;;;;;;4.85;4.40;;;;;;;18.66;48.10;96047.88;5016993;28;20204;-84
2023/06/25 00:38:30;;;;;;;5.03;3.92;;;;;;;18.62;48.17;96040.50;5007197;28;20248;-84
2023/06/25 00:40:55;;;;;;;5.07;4.57;;;;;;;18.62;48.27;96040.50;5018848;28;20180;-85
2023/06/25 00:43:21;;;;;;;4.32;3.88;;;;;;;18.57;48.50;96037.63;5010472;28;20707;-82
2023/06/25 00:45:46;;;;;;;4.50;3.72;;;;;;;18.59;48.47;96038.25;4985196;28;20216;-83
2023/06/25 00:48:12;;;;;;;5.22;3.92;;;;;;;18.59;48.31;96036.41;5013090;28;20184;-82
2023/06/25 00:50:38;;;;;;;4.40;4.00;;;;;;;18.61;48.51;96042.31;4995845;28;20234;-82
2023/06/25 00:53:08;;;;;;;4.50;4.10;;;;;;;18.52;48.63;96035.53;4990391;28;20677;-82
2023/06/25 00:55:34;;;;;;;5.82;4.00;;;;;;;18.53;48.63;96028.44;4994978;28;20203;-82
2023/06/25 00:58:00;;;;;;;5.25;4.50;;;;;;;18.50;49.23;96027.00;4986371;28;20176;-82
2023/06/25 01:00:27;;;;;;;4.90;4.40;;;;;;;18.51;48.98;96023.38;4984554;28;20184;-82
2023/06/25 01:03:04;;;;;;;5.32;4.68;;;;;;;18.51;49.02;96028.63;4986452;28;20211;-82
2023/06/25 01:05:30;;;;;;;5.30;4.35;;;;;;;18.46;49.24;96023.09;4975254;28;20184;-83
2023/06/25 01:07:57;;;;;;;5.40;4.55;;;;;;;18.44;49.60;96019.03;4993469;28;20246;-84
2023/06/25 01:10:23;;;;;;;5.32;4.75;;;;;;;18.43;49.24;96017.41;4986856;28;20185;-83
2023/06/25 01:12:48;;;;;;;5.63;4.72;;;;;;;18.44;49.77;96011.16;4991874;28;20200;-82
2023/06/25 01:15:13;;;;;;;5.13;4.60;;;;;;;18.40;49.89;96008.09;4993483;28;20207;-83
2023/06/25 01:17:42;;;;;;;4.68;4.20;;;;;;;18.38;49.75;96010.91;4986008;28;20263;-83
2023/06/25 01:20:11;;;;;;;4.80;4.40;;;;;;;18.37;49.78;96006.63;5009835;28;20191;-83
2023/06/25 01:22:38;;;;;;;5.95;4.50;;;;;;;18.39;49.84;96009.09;4991610;28;20245;-83
2023/06/25 01:25:04;;;;;;;5.00;4.30;;;;;;;18.46;50.19;96006.53;4992429;28;20295;-83
2023/06/25 01:27:32;;;;;;;4.80;4.38;;;;;;;18.49;50.33;96000.91;4994279;28;20250;-83
2023/06/25 01:29:58;;;;;;;4.72;3.85;;;;;;;18.46;50.49;96001.25;4976718;28;20713;-83
2023/06/25 01:32:24;;;;;;;4.78;4.25;;;;;;;18.42;50.69;96000.00;4992217;28;20219;-82
2023/06/25 01:34:50;;;;;;;5.75;4.43;;;;;;;18.44;50.41;95988.28;4991249;28;20243;-83
2023/06/25 01:37:17;;;;;;;5.13;4.18;;;;;;;18.40;50.50;95990.50;5010270;28;20802;-82
2023/06/25 01:39:49;;;;;;;6.57;4.60;;;;;;;18.36;50.72;95993.66;4990728;28;20196;-82
2023/06/25 01:42:15;;;;;;;5.88;5.28;;;;;;;18.32;50.80;95995.06;4987628;28;20215;-82
2023/06/25 01:44:40;;;;;;;5.43;4.70;;;;;;;18.34;50.68;95987.78;4995221;28;20589;-83
2023/06/25 01:47:06;;;;;;;4.50;4.10;;;;;;;18.26;51.13;95986.06;4993953;28;20178;-82
2023/06/25 01:49:31;;;;;;;4.85;4.45;;;;;;;18.26;51.01;95982.63;4990021;28;20215;-83
2023/06/25 01:51:56;;;;;;;6.18;4.63;;;;;;;18.27;51.31;95987.69;4984769;28;20203;-83
2023/06/25 01:54:22;;;;;;;5.22;4.72;;;;;;;18.28;51.17;95981.44;4983721;28;20226;-83
2023/06/25 01:56:47;;;;;;;7.63;4.68;;;;;;;18.26;50.96;95986.06;4990250;28;20200;-82
2023/06/25 01:59:13;;;;;;;6.22;4.82;;;;;;;18.30;51.12;95981.28;4992041;28;20192;-82
2023/06/25 02:01:39;;;;;;;5.68;4.78;;;;;;;18.29;51.05;95977.84;4987308;28;20192;-83
2023/06/25 02:04:04;;;;;;;5.18;4.68;;;;;;;18.30;51.41;95971.56;4990957;28;20209;-82
2023/06/25 02:06:30;;;;;;;5.53;4.70;;;;;;;18.23;51.15;95969.88;4994038;28;20175;-83
2023/06/25 02:08:55;;;;;;;5.68;4.25;;;;;;;18.26;51.25;95970.31;4994141;28;20194;-82
2023/06/25 02:11:20;;;;;;;5.22;4.72;;;;;;;18.22;51.21;95957.72;4986678;28;20179;-83
2023/06/25 02:13:46;;;;;;;5.20;4.50;;;;;;;18.22;51.11;95958.53;4983294;28;20203;-83
2023/06/25 02:16:11;;;;;;;5.30;4.80;;;;;;;18.21;51.29;95953.47;4990481;28;20254;-83
2023/06/25 02:18:37;;;;;;;4.95;4.22;;;;;;;18.19;51.41;95958.88;5006248;28;20195;-83
2023/06/25 02:21:02;;;;;;;4.90;4.50;;;;;;;18.16;51.17;95956.63;4993478;28;20187;-83
2023/06/25 02:23:28;;;;;;;5.60;4.65;;;;;;;18.18;50.98;95959.09;4976129;28;20243;-83
2023/06/25 02:25:53;;;;;;;6.15;4.95;;;;;;;18.10;51.30;95949.47;4991495;28;20793;-83
2023/06/25 02:28:18;;;;;;;5.15;4.57;;;;;;;18.07;51.43;95947.22;4983146;28;20180;-83
2023/06/25 02:30:44;;;;;;;5.45;4.90;;;;;;;18.10;51.34;95952.13;4990967;28;20181;-83
2023/06/25 02:33:10;;;;;;;5.38;4.60;;;;;;;18.11;51.47;95949.31;4991056;28;20188;-83
2023/06/25 02:35:35;;;;;;;5.00;4.50;;;;;;;18.13;51.06;95956.22;4985705;28;20199;-83
2023/06/25 02:38:00;;;;;;;5.20;4.70;;;;;;;18.11;51.54;95956.41;4988526;28;20198;-82
2023/06/25 02:40:28;;;;;;;5.95;4.97;;;;;;;18.07;51.73;95949.88;4984675;28;20200;-83
2023/06/25 02:42:54;;;;;;;4.82;4.43;;;;;;;18.06;50.91;95956.94;4983378;28;20224;-83
2023/06/25 02:45:19;;;;;;;6.40;4.97;;;;;;;18.00;51.64;95952.41;4985772;28;20227;-83
2023/06/25 02:47:45;;;;;;;5.20;4.70;;;;;;;17.99;51.73;95949.97;4978742;28;20275;-83
2023/06/25 02:50:10;;;;;;;4.85;4.45;;;;;;;18.01;51.65;95942.72;5007947;28;20187;-83
2023/06/25 02:52:36;;;;;;;5.40;4.90;;;;;;;17.99;51.34;95948.16;4991321;28;20190;-84
2023/06/25 02:55:01;;;;;;;5.80;4.43;;;;;;;17.96;51.51;95947.72;4991645;28;20262;-83
2023/06/25 02:57:29;;;;;;;5.55;5.05;;;;;;;17.93;51.85;95948.06;5006360;28;20685;-83
2023/06/25 02:59:55;;;;;;;4.90;4.40;;;;;;;17.96;51.78;95952.97;4977500;28;20183;-84
2023/06/25 03:02:20;;;;;;;5.90;5.10;;;;;;;18.01;51.80;95945.34;4988201;28;20660;-83
2023/06/25 03:04:45;;;;;;;4.85;4.35;;;;;;;17.98;51.79;95946.53;4983519;28;20204;-83
2023/06/25 03:07:11;;;;;;;9.65;5.20;;;;;;;17.95;52.04;95946.09;4993100;28;20183;-84
2023/06/25 03:09:36;;;;;;;5.88;4.70;;;;;;;17.92;52.11;95946.44;4988458;28;20184;-83
2023/06/25 03:12:02;;;;;;;5.35;4.85;;;;;;;17.85;52.01;95948.19;4993096;28;20187;-83
2023/06/25 03:14:27;;;;;;;4.78;4.38;;;;;;;17.81;52.38;95947.72;4969723;28;20692;-84
2023/06/25 03:16:52;;;;;;;5.50;4.80;;;;;;;17.83;52.45;95943.09;4983679;28;20268;-83
2023/06/25 03:19:18;;;;;;;5.53;5.03;;;;;;;17.78;52.95;95948.09;4989854;28;20226;-83
2023/06/25 03:21:43;;;;;;;4.95;4.50;;;;;;;17.81;52.46;95939.84;4996233;28;20560;-84
2023/06/25 03:24:08;;;;;;;5.32;4.82;;;;;;;17.80;52.51;95940.84;4989548;28;20281;-83
2023/06/25 03:26:34;;;;;;;7.60;4.55;;;;;;;17.83;52.15;95938.66;4984932;28;20201;-83
2023/06/25 03:28:59;;;;;;;5.72;4.65;;;;;;;17.89;52.10;95938.94;4996653;28;20183;-84
2023/06/25 03:31:24;;;;;;;5.30;4.80;;;;;;;17.89;52.55;95941.56;4993820;28;20283;-83
2023/06/25 03:33:50;;;;;;;5.53;4.75;;;;;;;17.89;52.40;95942.38;4994867;28;20704;-84
2023/06/25 03:36:15;;;;;;;6.38;5.03;;;;;;;17.89;52.48;95945.00;4996294;28;20211;-82
2023/06/25 03:38:40;;;;;;;5.53;4.70;;;;;;;17.99;52.38;95940.28;4996720;28;20290;-83
2023/06/25 03:41:06;;;;;;;5.20;4.70;;;;;;;18.21;51.81;95946.41;4995949;28;20184;-83
2023/06/25 03:43:31;;;;;;;5.68;5.00;;;;;;;18.66;50.62;95941.84;4995192;28;20646;-83
2023/06/25 03:45:56;;;;;;;4.95;4.50;;;;;;;19.35;48.92;95939.38;4998086;28;20183;-83
2023/06/25 03:48:22;;;;;;;4.63;3.95;;;;;;;20.29;46.60;95938.81;4992541;28;20653;-83
2023/06/25 03:50:47;;;;;;;4.93;4.30;;;;;;;21.19;44.89;95933.06;5012426;28;20282;-83
2023/06/25 03:53:13;;;;;;;5.97;4.70;;;;;;;22.27;41.90;95936.13;4995010;28;20198;-83
2023/06/25 03:55:38;;;;;;;6.13;5.07;;;;;;;22.71;40.62;95944.22;4982855;28;20188;-83
2023/06/25 03:58:03;;;;;;;5.28;4.30;;;;;;;23.63;38.19;95942.69;4995378;28;20180;-83
2023/06/25 04:00:29;;;;;;;6.22;4.85;;;;;;;24.37;36.29;95935.53;4987353;28;20180;-83
2023/06/25 04:02:55;;;;;;;6.88;4.75;;;;;;;24.91;35.31;95939.84;4989996;28;20192;-84
2023/06/25 04:05:20;;;;;;;4.55;4.15;;;;;;;25.62;34.64;95932.78;4983522;28;20228;-84
2023/06/25 04:07:45;;;;;;;5.60;4.18;;;;;;;26.59;33.13;95940.91;4979866;28;20176;-84
2023/06/25 04:10:10;;;;;;;4.60;4.20;;;;;;;26.83;31.63;95937.09;4996469;28;20190;-84
2023/06/25 04:12:36;;;;;;;4.88;4.30;;;;;;;26.26;32.44;95938.94;4994659;28;20267;-84
2023/06/25 04:15:01;;;;;;;4.45;3.95;;;;;;;27.45;30.79;95936.25;4993605;28;20208;-85
2023/06/25 04:17:27;;;;;;;4.85;4.35;;;;;;;27.14;31.16;95927.00;4994324;28;20220;-84
2023/06/25 04:19:52;;;;;;;6.00;4.68;;;;;;;27.43;30.43;95927.69;4994520;28;20183;-85
2023/06/25 04:22:17;;;;;;;5.07;4.57;;;;;;;28.00;29.97;95931.97;4992105;28;20677;-84
2023/06/25 04:24:43;;;;;;;4.75;4.13;;;;;;;28.12;29.82;95930.78;4989996;28;20208;-85
2023/06/25 04:27:08;;;;;;;4.90;4.40;;;;;;;29.36;28.06;95936.34;4994504;28;20728;-85
2023/06/25 04:29:33;;;;;;;4.70;4.20;;;;;;;30.12;26.72;95948.34;4988115;28;20187;-84
2023/06/25 04:32:01;;;;;;;5.47;4.97;;;;;;;30.95;25.90;95937.63;4993563;28;20973;-83
2023/06/25 04:34:26;;;;;;;5.00;4.60;;;;;;;29.91;26.70;95933.22;5007551;28;20262;-83
2023/06/25 04:36:52;;;;;;;4.80;4.40;;;;;;;30.50;26.77;95941.00;4986418;28;20195;-83
2023/06/25 04:39:17;;;;;;;6.90;4.53;;;;;;;31.58;25.17;95948.09;4993236;28;20187;-83
2023/06/25 04:41:43;;;;;;;4.63;4.22;;;;;;;31.37;25.18;95946.53;4993936;28;20196;-84
2023/06/25 04:44:08;;;;;;;5.10;4.60;;;;;;;30.95;25.40;95948.34;4993155;28;20621;-84
2023/06/25 04:46:33;;;;;;;6.53;4.38;;;;;;;32.38;23.93;95946.28;4992063;28;20270;-85
2023/06/25 04:48:59;;;;;;;4.82;4.43;;;;;;;32.72;23.69;95942.09;4992923;28;20222;-85
2023/06/25 04:51:24;;;;;;;5.47;4.97;;;;;;;32.28;23.95;95940.13;4992088;28;20215;-84
2023/06/25 04:53:49;;;;;;;4.65;4.15;;;;;;;34.06;21.39;95941.53;4985189;28;20220;-84
2023/06/25 04:56:18;;;;;;;4.53;4.20;;;;;;;32.64;23.72;95935.41;4993285;28;20215;-84
2023/06/25 04:58:43;;;;;;;4.45;4.07;;;;;;;34.34;21.73;95940.66;4984224;28;20188;-84
2023/06/25 05:01:08;;;;;;;6.85;4.50;;;;;;;32.78;23.20;95943.66;4991805;28;20219;-84
2023/06/25 05:03:33;;;;;;;4.90;4.40;;;;;;;33.20;23.28;95945.81;4980850;28;20204;-84
2023/06/25 05:05:59;;;;;;;4.88;4.40;;;;;;;35.34;20.41;95949.53;4992759;28;20180;-84
2023/06/25 05:08:25;;;;;;;4.47;3.95;;;;;;;34.20;21.73;95947.06;5007635;28;20247;-84
2023/06/25 05:10:50;;;;;;;4.85;4.45;;;;;;;34.08;22.02;95950.94;5008356;28;20184;-84
2023/06/25 05:13:15;;;;;;;4.47;3.92;;;;;;;34.85;21.42;95947.28;4992254;28;20242;-85
2023/06/25 05:15:41;;;;;;;5.30;4.82;;;;;;;34.48;21.39;95946.19;4992524;28;20179;-85
2023/06/25 05:18:10;;;;;;;4.70;4.30;;;;;;;35.57;20.09;95947.81;4992711;28;20183;-84
2023/06/25 05:20:36;;;;;;;4.63;4.22;;;;;;;34.78;20.50;95946.84;4992508;28;20267;-85
2023/06/25 05:23:05;;;;;;;5.03;4.63;;;;;;;34.76;21.06;95951.75;4981676;28;20204;-84
2023/06/25 05:25:32;;;;;;;5.20;4.70;;;;;;;34.33;21.64;95951.72;4999941;28;20279;-84
2023/06/25 05:27:57;;;;;;;4.25;3.92;;;;;;;34.81;21.53;95952.47;4989823;28;20662;-84
2023/06/25 05:30:23;;;;;;;4.45;4.05;;;;;;;36.13;20.02;95954.09;4990903;28;20187;-84
2023/06/25 05:32:48;;;;;;;4.40;4.10;;;;;;;37.22;18.49;95955.03;4984669;28;20241;-84
2023/06/25 05:35:13;;;;;;;4.90;4.38;;;;;;;36.39;18.95;95965.22;4992561;28;20731;-84
2023/06/25 05:37:39;;;;;;;5.10;4.60;;;;;;;35.93;20.26;95958.78;4991890;28;20586;-85
2023/06/25 05:40:05;;;;;;;4.85;4.05;;;;;;;37.35;18.48;95960.41;4991560;28;20215;-84
2023/06/25 05:42:30;;;;;;;4.50;4.20;;;;;;;35.45;19.84;95956.38;4990460;28;20200;-84
2023/06/25 05:44:55;;;;;;;5.13;4.63;;;;;;;36.55;19.42;95966.53;4993822;28;20283;-84
2023/06/25 05:47:20;;;;;;;5.45;4.95;;;;;;;36.45;19.26;95958.63;4989077;28;20592;-84
2023/06/25 05:49:46;;;;;;;5.13;4.63;;;;;;;35.65;20.23;95960.63;4992804;28;20195;-84
2023/06/25 05:52:11;;;;;;;6.75;4.63;;;;;;;38.60;17.76;95960.34;5000376;28;20164;-85
2023/06/25 05:54:36;;;;;;;4.43;4.13;;;;;;;38.53;17.38;95969.78;4998914;28;20212;-86
2023/06/25 05:57:02;;;;;;;5.38;4.10;;;;;;;35.83;20.60;95958.16;5015178;28;20272;-86
2023/06/25 05:59:27;;;;;;;4.80;4.40;;;;;;;35.70;20.47;95962.47;5018500;28;20198;-86
2023/06/25 06:01:52;;;;;;;4.50;4.10;;;;;;;35.93;19.96;95963.41;5026522;28;20192;-84
2023/06/25 06:04:18;;;;;;;4.88;4.38;;;;;;;36.41;19.05;95961.16;4977341;28;20207;-85
2023/06/25 06:06:43;;;;;;;4.97;4.45;;;;;;;37.03;18.76;95972.25;4981173;28;20196;-84
2023/06/25 06:09:08;;;;;;;6.72;4.63;;;;;;;36.94;18.85;95971.38;4991045;28;20226;-84
2023/06/25 06:11:34;;;;;;;4.70;4.10;;;;;;;36.82;19.10;95969.16;4991877;28;20184;-84
2023/06/25 06:13:59;;;;;;;4.45;4.05;;;;;;;37.12;19.06;95964.22;4974081;28;20259;-84
2023/06/25 06:16:24;;;;;;;5.03;4.63;;;;;;;38.41;17.41;95968.78;4991402;28;20562;-84
2023/06/25 06:18:49;;;;;;;4.53;4.18;;;;;;;37.03;19.07;95972.25;4988243;28;20219;-85
2023/06/25 06:21:15;;;;;;;4.78;4.32;;;;;;;37.94;17.92;95976.56;4989087;28;20223;-84
2023/06/25 06:23:40;;;;;;;4.93;4.43;;;;;;;37.72;18.55;95971.94;4980442;28;20239;-84
2023/06/25 06:26:05;;;;;;;4.43;4.10;;;;;;;37.18;18.96;95973.78;4982623;28;20188;-84
2023/06/25 06:28:31;;;;;;;4.70;4.30;;;;;;;36.61;19.80;95976.13;4981746;28;20383;-84
2023/06/25 06:30:56;;;;;;;4.53;4.13;;;;;;;36.42;20.04;95964.66;4992951;28;20211;-84
2023/06/25 06:33:21;;;;;;;5.38;4.45;;;;;;;36.14;20.50;95961.13;4992558;28;20294;-84
2023/06/25 06:35:47;;;;;;;5.18;4.25;;;;;;;36.37;20.23;95959.34;4993743;28;20183;-84
2023/06/25 06:38:12;;;;;;;5.07;4.40;;;;;;;35.74;20.34;95975.06;4989071;28;20198;-84
2023/06/25 06:40:37;;;;;;;4.53;4.13;;;;;;;35.27;20.71;95967.19;4983537;28;20187;-84
2023/06/25 06:43:03;;;;;;;5.85;4.70;;;;;;;35.64;20.24;95969.84;4991297;28;20238;-85
2023/06/25 06:45:28;;;;;;;6.82;4.25;;;;;;;36.72;19.55;95980.22;4983794;28;20184;-84
2023/06/25 06:47:53;;;;;;;4.57;4.25;;;;;;;35.56;20.21;95967.81;4970679;28;20195;-84
2023/06/25 06:50:18;;;;;;;4.78;4.28;;;;;;;34.04;23.58;95970.66;5007394;28;20219;-84
2023/06/25 06:52:45;;;;;;;5.07;4.68;;;;;;;34.23;23.01;95968.84;4990740;28;20187;-84
2023/06/25 06:55:10;;;;;;;5.30;4.90;;;;;;;34.20;23.14;95963.22;4990504;28;20212;-84
2023/06/25 06:57:36;;;;;;;5.50;5.10;;;;;;;34.34;23.05;95964.13;4983008;28;20751;-84
2023/06/25 07:00:03;;;;;;;5.28;4.68;;;;;;;33.44;24.12;95964.75;4993977;28;20188;-84
2023/06/25 07:02:29;;;;;;;4.90;4.50;;;;;;;34.96;22.59;95964.97;5008189;28;20237;-83
2023/06/25 07:04:54;;;;;;;4.95;4.57;;;;;;;34.48;23.01;95961.56;4992651;28;20652;-84
2023/06/25 07:07:19;;;;;;;4.57;4.07;;;;;;;35.50;21.66;95960.88;4982165;28;20189;-84
2023/06/25 07:09:52;;;;;;;4.45;4.13;;;;;;;36.64;20.44;95963.91;4994115;28;20202;-84
2023/06/25 07:12:18;;;;;;;5.43;4.97;;;;;;;35.81;21.04;95963.88;4989178;28;20215;-84
2023/06/25 07:14:43;;;;;;;5.05;4.57;;;;;;;35.83;20.74;95960.88;4991244;28;20526;-84
2023/06/25 07:17:08;;;;;;;4.85;4.45;;;;;;;35.03;20.74;95959.19;4983946;28;20665;-84
2023/06/25 07:19:34;;;;;;;5.13;4.63;;;;;;;35.07;21.80;95971.78;4983279;28;20199;-84
2023/06/25 07:21:59;;;;;;;5.55;4.95;;;;;;;34.30;20.78;95968.50;4983437;28;20219;-83
2023/06/25 07:24:24;;;;;;;5.45;4.70;;;;;;;34.51;20.20;95961.78;4990874;28;20295;-84
2023/06/25 07:26:50;;;;;;;4.78;4.38;;;;;;;33.78;21.13;95962.81;4991459;28;20555;-84
2023/06/25 07:29:15;;;;;;;6.03;5.07;;;;;;;33.91;21.95;95964.06;4984398;28;20192;-84
2023/06/25 07:31:40;;;;;;;5.10;4.70;;;;;;;33.10;22.32;95964.72;4988459;28;20190;-84
2023/06/25 07:34:06;;;;;;;5.88;5.28;;;;;;;33.78;21.48;95951.25;5002941;28;20240;-84
2023/06/25 07:36:31;;;;;;;5.32;4.90;;;;;;;33.74;21.12;95959.06;4987876;28;20575;-83
2023/06/25 07:38:57;;;;;;;5.10;4.63;;;;;;;33.90;21.68;95954.38;4986435;28;20650;-84
2023/06/25 07:41:22;;;;;;;5.70;5.20;;;;;;;33.15;22.74;95959.31;4992767;28;20202;-83
2023/06/25 07:43:48;;;;;;;5.43;4.78;;;;;;;33.33;22.76;95957.84;4990104;28;20219;-83
2023/06/25 07:46:13;;;;;;;5.20;4.80;;;;;;;33.64;22.27;95961.88;4992345;28;20195;-84
2023/06/25 07:48:39;;;;;;;5.75;4.82;;;;;;;32.86;23.17;95962.72;5007880;28;20192;-84
2023/06/25 07:51:04;;;;;;;5.68;5.03;;;;;;;32.64;23.36;95957.72;4991251;28;20180;-84
2023/06/25 07:53:30;;;;;;;6.60;5.35;;;;;;;32.79;22.95;95961.41;4982627;28;20204;-83
2023/06/25 07:55:55;;;;;;;6.05;5.25;;;;;;;33.34;22.40;95957.53;4989701;28;20275;-84
2023/06/25 07:58:20;;;;;;;5.18;4.60;;;;;;;33.10;23.60;95962.03;4990765;28;20555;-84
2023/06/25 08:00:46;;;;;;;5.80;5.20;;;;;;;32.83;23.59;95965.94;4986756;28;20183;-83
2023/06/25 08:03:11;;;;;;;5.97;5.05;;;;;;;32.67;23.19;95959.03;4984691;28;20179;-84
2023/06/25 08:05:36;;;;;;;5.18;4.78;;;;;;;32.36;22.33;95953.03;5011957;28;20649;-83
2023/06/25 08:08:02;;;;;;;5.28;4.88;;;;;;;32.43;22.73;95953.53;4990677;28;20195;-84
2023/06/25 08:10:27;;;;;;;5.35;4.68;;;;;;;32.11;23.07;95945.84;4986032;28;20868;-84
2023/06/25 08:12:54;;;;;;;4.90;4.50;;;;;;;32.37;23.12;95944.69;4995953;28;20653;-84
2023/06/25 08:15:20;;;;;;;5.10;4.68;;;;;;;31.81;23.39;95941.38;4994993;28;20557;-84
2023/06/25 08:17:48;;;;;;;5.47;4.82;;;;;;;31.94;22.96;95943.47;4990399;28;20208;-84
2023/06/25 08:20:14;;;;;;;6.03;5.25;;;;;;;32.16;23.66;95953.06;4986502;28;20198;-84
2023/06/25 08:22:39;;;;;;;5.93;5.22;;;;;;;31.60;22.92;95945.94;4993153;28;20604;-84
2023/06/25 08:25:19;;;;;;;6.32;5.50;;;;;;;30.84;24.86;95943.25;4988146;28;20207;-83
2023/06/25 08:27:44;;;;;;;5.07;4.60;;;;;;;30.81;24.90;95949.91;5006569;28;20266;-84
2023/06/25 08:30:10;;;;;;;5.57;5.00;;;;;;;31.05;24.31;95949.41;4974198;28;20215;-83
2023/06/25 08:32:35;;;;;;;7.47;5.40;;;;;;;31.14;24.49;95948.63;4984879;28;20274;-83
2023/06/25 08:35:01;;;;;;;5.95;4.80;;;;;;;30.29;24.89;95950.81;4981613;28;20220;-84
2023/06/25 08:37:26;;;;;;;5.38;4.88;;;;;;;29.99;24.63;95945.31;4980438;28;20207;-84
2023/06/25 08:39:51;;;;;;;7.07;5.15;;;;;;;29.83;23.72;95944.41;4983760;28;20184;-83
2023/06/25 08:42:16;;;;;;;5.22;4.75;;;;;;;29.33;24.95;95945.66;4992465;28;20187;-85
2023/06/25 08:44:42;;;;;;;7.13;5.38;;;;;;;27.84;26.36;95934.44;4994330;28;20230;-83
2023/06/25 08:47:09;;;;;;;5.93;5.07;;;;;;;27.55;27.42;95932.91;4992115;28;20215;-82
2023/06/25 08:49:35;;;;;;;5.70;5.20;;;;;;;27.90;27.03;95936.13;4988354;28;20196;-83
2023/06/25 08:52:01;;;;;;;5.32;4.82;;;;;;;28.48;27.15;95933.91;4993063;28;20547;-83
2023/06/25 08:54:26;;;;;;;6.47;5.60;;;;;;;27.71;28.15;95940.13;4992157;28;20215;-83
2023/06/25 08:56:51;;;;;;;5.63;5.13;;;;;;;27.87;26.25;95935.81;4984852;28;20196;-84
2023/06/25 08:59:17;;;;;;;5.72;5.13;;;;;;;28.01;26.46;95939.75;4990080;28;20196;-84
2023/06/25 09:01:42;;;;;;;5.85;5.35;;;;;;;27.61;27.22;95937.28;4980572;28;20191;-83
2023/06/25 09:04:07;;;;;;;5.82;5.22;;;;;;;27.56;27.41;95929.19;4992207;28;20712;-83
2023/06/25 09:06:42;;;;;;;5.70;5.20;;;;;;;27.71;26.77;95933.97;4992223;28;20192;-83
2023/06/25 09:09:10;;;;;;;5.85;5.25;;;;;;;27.83;26.73;95930.16;4989463;28;20193;-84
2023/06/25 09:11:40;;;;;;;6.28;5.68;;;;;;;28.29;25.89;95930.75;4994591;28;20211;-84
2023/06/25 09:14:06;;;;;;;5.80;5.30;;;;;;;28.04;25.35;95930.41;4992693;28;20212;-84
2023/06/25 09:16:32;;;;;;;5.90;5.20;;;;;;;28.39;26.69;95928.19;4994102;28;20200;-84
2023/06/25 09:18:57;;;;;;;5.30;4.80;;;;;;;28.56;26.62;95935.31;4991195;28;20214;-85
2023/06/25 09:21:22;;;;;;;7.28;5.18;;;;;;;29.12;25.40;95934.00;4981417;28;20206;-84
2023/06/25 09:23:51;;;;;;;6.53;5.53;;;;;;;28.86;24.96;95932.94;4993264;28;20207;-84
2023/06/25 09:26:17;;;;;;;7.00;6.22;;;;;;;28.74;25.53;95930.44;4993509;28;20179;-84
2023/06/25 09:28:49;;;;;;;6.35;5.75;;;;;;;28.93;27.26;95919.41;4986557;28;20188;-84
2023/06/25 09:31:16;;;;;;;6.32;5.20;;;;;;;29.45;25.43;95922.22;4992797;28;20216;-84
2023/06/25 09:33:49;;;;;;;6.07;5.38;;;;;;;29.48;23.82;95921.69;5008453;28;20694;-83
2023/06/25 09:36:14;;;;;;;6.90;5.30;;;;;;;29.41;25.45;95912.28;5009946;28;20199;-83
2023/06/25 09:38:44;;;;;;;5.53;5.03;;;;;;;29.67;23.86;95908.72;4994183;28;20246;-85
2023/06/25 09:41:09;;;;;;;6.35;5.78;;;;;;;29.22;24.20;95911.88;4978728;28;20259;-84
2023/06/25 09:43:35;;;;;;;6.88;5.53;;;;;;;29.11;25.02;95918.22;4986678;28;20748;-83
2023/06/25 09:46:02;;;;;;;6.65;6.05;;;;;;;29.12;25.21;95911.81;4983238;28;20192;-84
2023/06/25 09:48:28;;;;;;;7.18;6.47;;;;;;;29.27;24.99;95911.94;4982776;28;20191;-84
2023/06/25 09:50:56;;;;;;;6.80;6.20;;;;;;;28.87;25.10;95915.03;4993062;28;20283;-83
2023/06/25 09:53:22;;;;;;;6.05;5.47;;;;;;;29.21;26.94;95900.38;4989218;28;20605;-83
2023/06/25 09:55:48;;;;;;;6.18;5.40;;;;;;;29.40;25.30;95906.13;4993837;28;20191;-84
2023/06/25 09:58:14;;;;;;;6.43;5.85;;;;;;;29.03;24.31;95903.44;4993433;28;20211;-83
2023/06/25 10:00:40;;;;;;;7.30;6.60;;;;;;;28.37;25.30;95906.28;4993150;28;20223;-84
2023/06/25 10:03:05;;;;;;;6.93;6.32;;;;;;;28.68;25.08;95895.88;4992309;28;20187;-84
2023/06/25 10:05:31;;;;;;;10.88;6.40;;;;;;;28.78;25.17;95901.31;4991025;28;20289;-83
2023/06/25 10:07:58;;;;;;;7.13;6.43;;;;;;;28.71;25.90;95880.19;4992937;28;20176;-84
2023/06/25 10:10:26;;;;;;;6.45;5.75;;;;;;;29.19;25.17;95885.66;4990564;28;20188;-84
2023/06/25 10:12:52;;;;;;;5.70;5.20;;;;;;;29.22;25.04;95885.13;4987958;28;20219;-84
2023/06/25 10:15:31;;;;;;;5.90;5.40;;;;;;;29.06;24.23;95884.22;4992661;28;20208;-84
2023/06/25 10:18:00;;;;;;;7.45;5.97;;;;;;;29.27;25.03;95888.66;4962193;28;20306;-83
2023/06/25 10:20:28;;;;;;;7.22;6.53;;;;;;;29.62;23.91;95887.31;4994254;28;20183;-84
2023/06/25 10:23:12;;;;;;;6.60;5.95;;;;;;;29.58;23.39;95878.97;4991200;28;20234;-84
2023/06/25 10:25:40;;;;;;;6.88;6.18;;;;;;;29.50;23.81;95889.34;4981638;28;20206;-84
2023/06/25 10:28:09;;;;;;;8.35;6.80;;;;;;;28.48;25.27;95896.50;4992909;28;20187;-84
2023/06/25 10:30:36;;;;;;;7.97;6.68;;;;;;;28.52;24.19;95886.91;4992723;28;20200;-84
2023/06/25 10:33:01;;;;;;;7.93;6.60;;;;;;;28.31;25.66;95880.56;4982935;28;20188;-84
2023/06/25 10:35:26;;;;;;;7.50;6.75;;;;;;;28.01;24.99;95874.88;4992342;28;20696;-84
2023/06/25 10:37:52;;;;;;;7.65;6.95;;;;;;;27.69;25.94;95872.88;4992537;28;20266;-84
2023/06/25 10:40:17;;;;;;;7.20;6.50;;;;;;;27.72;25.67;95875.03;5008512;28;20211;-84
2023/06/25 10:42:42;;;;;;;7.30;6.60;;;;;;;28.64;25.81;95866.22;4992444;28;20556;-84
2023/06/25 10:45:08;;;;;;;7.30;6.60;;;;;;;28.49;24.48;95876.75;4991219;28;20306;-83
2023/06/25 10:47:33;;;;;;;7.63;6.53;;;;;;;28.69;24.85;95868.91;4985332;28;20180;-84
2023/06/25 10:49:59;;;;;;;6.68;5.97;;;;;;;29.22;25.14;95861.88;4989286;28;20654;-84
2023/06/25 10:52:25;;;;;;;7.30;6.60;;;;;;;29.32;23.46;95863.81;4992986;28;20187;-83
2023/06/25 10:54:53;;;;;;;8.20;6.80;;;;;;;28.54;24.02;95865.31;4983699;28;20207;-84
2023/06/25 10:57:19;;;;;;;7.75;6.55;;;;;;;28.71;24.22;95868.66;5005900;28;20215;-82
2023/06/25 10:59:45;;;;;;;7.45;6.72;;;;;;;28.26;24.34;95867.13;4992557;28;20286;-83
2023/06/25 11:02:16;;;;;;;9.13;7.30;;;;;;;28.38;23.68;95872.38;4990675;28;20180;-83
2023/06/25 11:04:48;;;;;;;7.65;6.95;;;;;;;28.63;24.46;95869.13;4983479;28;20212;-84
2023/06/25 11:07:14;;;;;;;7.75;6.95;;;;;;;28.27;24.47;95852.75;4974534;28;20215;-83
2023/06/25 11:09:39;;;;;;;7.90;7.20;;;;;;;29.12;24.26;95855.66;4992567;28;20624;-84
2023/06/25 11:12:05;;;;;;;7.10;6.40;;;;;;;28.84;24.02;95854.88;4992441;28;20206;-84
2023/06/25 11:14:31;;;;;;;8.68;7.03;;;;;;;28.55;23.89;95853.56;4992000;28;20204;-84
2023/06/25 11:16:56;;;;;;;8.35;6.50;;;;;;;28.63;24.21;95848.56;5008244;28;20295;-83
2023/06/25 11:19:24;;;;;;;8.23;6.85;;;;;;;28.43;24.35;95853.69;4989939;28;20196;-83
2023/06/25 11:21:50;;;;;;;7.63;6.95;;;;;;;28.65;23.47;95848.31;4980774;28;20188;-83
2023/06/25 11:24:16;;;;;;;8.10;7.18;;;;;;;28.60;24.34;95838.38;4982438;28;20200;-83
2023/06/25 11:26:42;;;;;;;8.10;7.30;;;;;;;28.44;24.32;95845.44;4972566;28;20649;-83
2023/06/25 11:29:08;;;;;;;7.97;7.18;;;;;;;29.41;23.44;95840.84;4973694;28;20315;-83